Latest Weather Observations for Cape Bruny AWS

IDT60901

Issued at 6:01 pm EST Tuesday 26 May 2015 (issued every 10 minutes, with the page automatically refreshed every 10 minutes)

About weather observations | Map of Hobart area stations | Latest observations for Hobart area | Other Formats
Station Details ID: 094198 Name: CAPE BRUNY (CAPE BRUNY) Lat: -43.49 Lon: 147.14 Height: 59.7 m
Data from the previous 72 hours. | See also: Recent months at Cape Bruny AWS
Date/Time
EST
Tmp

°C
App
Tmp
°C
Dew
Point
°C
Rel
Hum
%
Delta-T

°C
Wind Press
QNH
hPa
Press
MSL
hPa
Rain
since
9 am
mm
Dir
 
Spd
km/h
Gust
km/h
Spd
kts
Gust
kts
26/06:00pm 10.5 9.9 7.2 80 1.6 CALM 0 0 0 0 1024.5 1024.5 0.0
26/05:30pm 10.5 9.4 7.0 79 1.7 SE 2 9 1 5 1024.5 1024.5 0.0
26/05:00pm 10.8 10.1 7.1 78 1.8 CALM 0 6 0 3 1024.4 1024.4 0.0
26/04:30pm 10.9 8.9 7.0 77 1.9 S 7 11 4 6 1024.5 1024.5 0.0
26/04:00pm 11.9 9.2 7.4 74 2.2 SW 11 17 6 9 1024.6 1024.6 0.0
26/03:30pm 12.4 9.4 7.9 74 2.2 SW 13 20 7 11 1024.7 1024.7 0.0
26/03:00pm 12.7 9.4 8.2 74 2.2 SW 15 24 8 13 1024.6 1024.6 0.0
26/02:30pm 13.1 9.5 8.2 72 2.4 SW 17 28 9 15 1024.6 1024.6 0.0
26/02:00pm 13.2 9.6 8.5 73 2.3 SW 17 24 9 13 1024.7 1024.7 0.0
26/01:30pm 12.7 8.7 8.2 74 2.2 SW 19 24 10 13 1024.9 1024.9 0.0
26/01:00pm 13.5 10.0 8.8 73 2.4 SW 17 24 9 13 1025.2 1025.2 0.0
26/12:30pm 13.5 10.0 8.8 73 2.4 SW 17 22 9 12 1025.4 1025.4 0.0
26/12:00pm 12.2 9.8 8.5 78 1.8 SW 11 17 6 9 1025.6 1025.6 0.0
26/11:30am 13.1 11.5 8.8 75 2.2 WNW 7 13 4 7 1026.0 1026.0 0.0
26/11:00am 13.3 11.8 8.6 73 2.3 WNW 6 7 3 4 1026.3 1026.4 0.0
26/10:30am 13.0 11.4 8.1 72 2.4 NW 6 9 3 5 1026.4 1026.5 0.0
26/10:00am 12.0 10.3 7.5 74 2.2 NW 6 7 3 4 1026.4 1026.5 0.0
26/09:30am 12.4 10.4 8.5 77 1.9 NW 9 13 5 7 1026.3 1026.4 0.0
26/09:00am 11.6 8.7 8.1 79 1.7 WNW 13 17 7 9 1026.4 1026.5 9.6
26/08:30am 11.1 6.7 7.4 78 1.8 W 20 30 11 16 1026.3 1026.4 9.6
26/08:00am 10.7 6.3 7.4 80 1.6 WSW 20 28 11 15 1026.1 1026.1 9.6
26/07:30am 10.8 5.3 7.5 80 1.6 WSW 26 32 14 17 1025.9 1025.9 9.6
26/07:00am 10.8 4.9 7.7 81 1.5 WSW 28 37 15 20 1025.8 1025.8 9.6
26/06:30am 10.9 4.6 7.6 80 1.6 WSW 30 35 16 19 1025.4 1025.4 9.6
26/06:00am 10.8 5.0 7.9 82 1.4 WSW 28 37 15 20 1025.3 1025.3 9.6
26/05:30am 10.6 5.2 7.8 83 1.4 WSW 26 33 14 18 1025.1 1025.1 9.6
26/05:00am 10.7 6.1 8.3 85 1.2 WSW 22 35 12 19 1025.0 1025.0 9.6
26/04:30am 10.9 5.2 8.3 84 1.3 WSW 28 35 15 19 1024.9 1024.9 9.6
26/04:00am 10.7 4.0 8.1 84 1.3 WSW 33 44 18 24 1024.8 1024.8 9.6
26/03:30am 10.4 4.7 8.2 86 1.1 WSW 28 35 15 19 1024.8 1024.8 9.4
26/03:00am 10.7 4.7 8.8 88 0.9 WSW 30 41 16 22 1025.0 1025.0 9.4
26/02:30am 10.8 6.5 9.2 90 0.8 WSW 22 30 12 16 1025.2 1025.2 9.4
26/02:00am 10.9 7.3 9.7 92 0.6 W 19 26 10 14 1025.2 1025.2 9.4
26/01:30am 11.0 6.8 9.8 92 0.6 WSW 22 32 12 17 1025.0 1025.0 9.2
26/01:00am 11.3 8.5 9.9 91 0.7 W 15 19 8 10 1024.9 1024.9 5.8
26/12:30am 11.3 7.5 9.9 91 0.7 WSW 20 26 11 14 1024.9 1024.9 3.8
26/12:00am 11.5 7.9 9.8 89 0.9 SW 19 28 10 15 1024.7 1024.7 2.0
 
Date/Time
EST
Tmp

°C
App
Tmp
°C
Dew
Point
°C
Rel
Hum
%
Delta-T

°C
Wind Press
QNH
hPa
Press
MSL
hPa
Rain
since
9 am
mm
Dir
 
Spd
km/h
Gust
km/h
Spd
kts
Gust
kts
25/11:30pm 11.8 9.6 9.4 85 1.2 SW 11 15 6 8 1024.7 1024.7 0.6
25/11:00pm 11.6 9.9 8.5 81 1.5 WNW 7 13 4 7 1024.4 1024.4 0.2
25/10:30pm 11.7 7.8 8.6 81 1.5 NW 19 24 10 13 1024.4 1024.4 0.2
25/10:00pm 12.7 8.4 7.2 69 2.7 NNW 19 24 10 13 1024.5 1024.5 0.0
25/09:30pm 12.2 7.6 6.5 68 2.7 NNW 20 28 11 15 1024.4 1024.4 0.0
25/09:00pm 12.7 8.4 7.0 68 2.7 NNW 19 28 10 15 1024.2 1024.2 0.0
25/08:30pm 12.5 8.2 6.8 68 2.7 NNW 19 26 10 14 1024.3 1024.3 0.0
25/08:00pm 11.9 7.9 6.6 70 2.5 NNW 17 22 9 12 1024.4 1024.4 0.0
25/07:30pm 11.4 7.1 6.9 74 2.1 N 19 24 10 13 1024.5 1024.5 0.0
25/07:00pm 11.5 7.1 6.4 71 2.4 N 19 26 10 14 1024.6 1024.6 0.0
25/06:30pm 11.5 7.4 6.4 71 2.4 N 17 22 9 12 1024.6 1024.6 0.0
25/06:00pm 11.4 8.2 6.9 74 2.1 N 13 20 7 11 1024.8 1024.8 0.0
25/05:30pm 11.6 7.6 6.5 71 2.4 N 17 22 9 12 1024.7 1024.7 0.0
25/05:00pm 10.9 6.4 6.3 73 2.1 N 19 24 10 13 1024.6 1024.6 0.0
25/04:30pm 11.0 6.6 6.6 74 2.1 N 19 24 10 13 1024.7 1024.7 0.0
25/04:00pm 11.3 7.8 7.0 75 2.0 N 15 20 8 11 1024.7 1024.7 0.0
25/03:30pm 12.3 9.6 7.4 72 2.4 N 11 17 6 9 1024.9 1024.9 0.0
25/03:00pm 13.2 10.6 7.9 70 2.6 N 11 15 6 8 1025.0 1025.0 0.0
25/02:30pm 13.6 11.0 7.8 68 2.9 N 11 15 6 8 1025.1 1025.1 0.0
25/02:00pm 12.8 9.8 7.7 71 2.5 N 13 19 7 10 1025.2 1025.2 0.0
25/01:30pm 12.0 7.9 6.3 68 2.7 N 17 20 9 11 1025.6 1025.6 0.0
25/01:00pm 13.3 9.7 6.9 65 3.1 NNE 15 20 8 11 1025.8 1025.8 0.0
25/12:30pm 13.6 10.6 7.6 67 3.0 NNE 13 17 7 9 1026.1 1026.1 0.0
25/12:00pm 11.7 7.8 7.2 74 2.2 NNE 17 20 9 11 1026.4 1026.5 0.0
25/11:30am 11.4 8.1 7.9 79 1.7 N 15 19 8 10 1026.8 1026.9 0.0
25/11:00am 11.1 7.7 7.6 79 1.7 N 15 20 8 11 1027.3 1027.4 0.0
25/10:30am 11.0 7.7 7.9 81 1.5 N 15 20 8 11 1027.5 1027.6 0.0
25/10:00am 9.9 6.1 7.5 85 1.1 N 17 22 9 12 1027.4 1027.5 0.0
25/09:30am 8.8 4.4 6.6 86 1.0 N 19 22 10 12 1027.5 1027.6 0.0
25/09:00am 8.4 4.0 6.4 87 0.9 N 19 20 10 11 1027.6 1027.7 0.0
25/08:30am 8.2 3.7 6.3 88 0.9 N 19 24 10 13 1027.6 1027.7 0.0
25/08:00am 8.0 3.9 6.1 88 0.9 N 17 24 9 13 1027.5 1027.6 0.0
25/07:30am 7.6 3.4 5.7 88 0.9 N 17 22 9 12 1027.5 1027.6 0.0
25/07:00am 7.5 2.9 5.5 87 0.9 N 19 24 10 13 1027.4 1027.5 0.0
25/06:30am 7.7 3.5 5.5 86 1.0 N 17 22 9 12 1027.3 1027.4 0.0
25/06:00am 8.0 3.8 5.8 86 1.0 N 17 19 9 10 1027.5 1027.6 0.0
25/05:30am 7.8 4.4 5.8 87 0.9 N 13 20 7 11 1027.3 1027.4 0.0
25/05:00am 8.0 3.9 6.0 87 0.9 N 17 20 9 11 1027.2 1027.3 0.0
25/04:30am 7.9 3.7 5.9 87 0.9 N 17 20 9 11 1027.2 1027.3 0.0
25/04:00am 7.7 3.8 5.3 85 1.1 N 15 20 8 11 1027.1 1027.2 0.0
25/03:30am 7.9 3.7 5.5 85 1.1 N 17 20 9 11 1027.3 1027.4 0.0
25/03:00am 7.6 3.3 5.4 86 1.0 N 17 20 9 11 1027.4 1027.5 0.0
25/02:30am 7.5 3.2 5.3 86 1.0 N 17 20 9 11 1027.6 1027.7 0.0
25/02:00am 7.5 2.9 5.5 87 0.9 N 19 22 10 12 1027.7 1027.8 0.0
25/01:30am 7.4 3.1 5.4 87 0.9 N 17 20 9 11 1027.8 1027.9 0.0
25/01:00am 7.3 3.0 5.3 87 0.9 N 17 20 9 11 1027.8 1027.9 0.0
25/12:30am 7.4 3.1 5.4 87 0.9 N 17 20 9 11 1028.0 1028.1 0.0
25/12:00am 7.4 3.4 5.0 85 1.1 N 15 19 8 10 1028.2 1028.3 0.0
 
Date/Time
EST
Tmp

°C
App
Tmp
°C
Dew
Point
°C
Rel
Hum
%
Delta-T

°C
Wind Press
QNH
hPa
Press
MSL
hPa
Rain
since
9 am
mm
Dir
 
Spd
km/h
Gust
km/h
Spd
kts
Gust
kts
24/11:30pm 8.3 5.3 5.8 84 1.1 N 11 15 6 8 1028.3 1028.4 0.0
24/11:00pm 8.2 4.4 5.7 84 1.1 N 15 17 8 9 1028.3 1028.4 0.0
24/10:30pm 8.1 3.9 5.9 86 1.0 N 17 20 9 11 1028.3 1028.4 0.0
24/10:00pm 7.9 4.1 5.9 87 0.9 N 15 19 8 10 1028.3 1028.4 0.0
24/09:30pm 8.2 4.8 6.0 86 1.0 N 13 17 7 9 1028.2 1028.3 0.0
24/09:00pm 8.4 5.0 5.7 83 1.2 N 13 17 7 9 1028.3 1028.4 0.0
24/08:30pm 8.6 4.7 5.4 80 1.4 N 15 20 8 11 1028.3 1028.4 0.0
24/08:00pm 9.5 4.6 4.3 70 2.3 NW 19 24 10 13 1028.4 1028.5 0.0
24/07:30pm 9.4 4.6 4.6 72 2.1 NNW 19 24 10 13 1028.4 1028.5 0.0
24/07:00pm 8.8 4.3 4.4 74 1.9 NNW 17 19 9 10 1028.4 1028.5 0.0
24/06:30pm 9.2 4.4 4.4 72 2.1 NW 19 22 10 12 1028.3 1028.4 0.0
24/06:00pm 9.2 5.1 4.6 73 2.0 NW 15 19 8 10 1028.3 1028.4 0.0
24/05:30pm 9.6 5.1 4.4 70 2.3 NW 17 20 9 11 1028.1 1028.2 0.0
24/05:00pm 9.6 5.1 4.4 70 2.3 WNW 17 20 9 11 1027.9 1028.0 0.0
24/04:30pm 9.4 6.1 4.8 73 2.1 NNW 11 15 6 8 1027.9 1028.0 0.0
24/04:00pm 9.8 8.4 5.4 74 2.0 ENE 2 7 1 4 1028.0 1028.1 0.0
24/03:30pm 10.4 8.7 5.8 73 2.1 E 4 7 2 4 1028.1 1028.2 0.0
24/03:00pm 10.5 9.5 5.7 72 2.2 CALM 0 7 0 4 1028.0 1028.1 0.0
24/02:30pm 10.8 8.6 6.0 72 2.2 S 7 9 4 5 1028.0 1028.1 0.0
24/02:00pm 11.0 8.8 5.3 68 2.6 SSW 6 9 3 5 1027.9 1028.0 0.0
24/01:30pm 11.5 9.1 5.2 65 2.9 W 7 9 4 5 1028.1 1028.2 0.0
24/01:00pm 12.2 9.9 5.6 64 3.1 W 7 9 4 5 1028.3 1028.4 0.0
24/12:30pm 11.5 9.3 5.4 66 2.8 NNW 6 9 3 5 1028.4 1028.5 0.0
24/12:00pm 11.4 7.9 5.3 66 2.8 NNE 13 17 7 9 1028.7 1028.8 0.0
24/11:30am 10.7 6.8 5.3 69 2.5 NNE 15 19 8 10 1028.9 1029.0 0.0
24/11:00am 10.4 6.2 5.6 72 2.2 NNE 17 24 9 13 1029.2 1029.3 0.0
24/10:30am 10.0 5.9 6.0 76 1.9 NNE 17 26 9 14 1029.3 1029.4 0.0
24/10:00am 9.1 5.6 5.5 78 1.6 N 13 19 7 10 1029.2 1029.3 0.0
24/09:30am 8.8 5.2 4.8 76 1.8 NNE 13 17 7 9 1029.4 1029.5 0.0
24/09:00am 8.6 4.6 5.0 78 1.6 N 15 17 8 9 1029.3 1029.4 0.0
24/08:30am 7.2 2.8 4.5 83 1.2 N 17 20 9 11 1029.2 1029.3 0.0
24/08:00am 6.4 1.4 4.4 87 0.9 N 20 24 11 13 1029.1 1029.2 0.0
24/07:30am 6.1 1.2 4.3 88 0.8 N 19 22 10 12 1028.9 1029.0 0.0
24/07:00am 6.0 1.1 4.3 89 0.7 N 19 20 10 11 1028.8 1028.9 0.0
24/06:30am 6.0 1.1 4.2 88 0.8 N 19 20 10 11 1028.7 1028.8 0.0
24/06:00am 5.9 1.4 4.2 89 0.7 N 17 19 9 10 1028.6 1028.7 0.0
24/05:30am 5.9 1.4 4.2 89 0.7 N 17 19 9 10 1028.4 1028.5 0.0
24/05:00am 6.3 2.6 4.5 88 0.8 N 13 15 7 8 1028.2 1028.3 0.0
24/04:30am 6.6 2.1 4.4 86 1.0 N 17 19 9 10 1028.0 1028.1 0.0
24/04:00am 7.5 3.1 5.0 84 1.1 N 17 22 9 12 1027.8 1027.9 0.0
24/03:30am 8.3 5.8 4.9 79 1.5 WNW 7 9 4 5 1027.9 1028.0 0.0
24/03:00am 8.6 6.1 5.0 78 1.6 NNW 7 11 4 6 1027.9 1028.0 0.0
24/02:30am 8.3 5.9 4.5 77 1.7 N 6 9 3 5 1028.1 1028.2 0.0
24/02:00am 8.9 4.1 4.9 76 1.8 WSW 19 24 10 13 1028.0 1028.1 0.0
24/01:30am 9.1 3.5 5.3 77 1.7 W 24 30 13 16 1027.9 1028.0 0.0
24/01:00am 9.4 2.3 5.4 76 1.8 W 32 46 17 25 1028.0 1028.1 0.0
24/12:30am 9.4 1.2 5.0 74 2.0 WSW 37 48 20 26 1027.9 1028.0 0.0
24/12:00am 9.4 1.0 5.4 76 1.8 WSW 39 50 21 27 1028.1 1028.2 0.0
 
Date/Time
EST
Tmp

°C
App
Tmp
°C
Dew
Point
°C
Rel
Hum
%
Delta-T

°C
Wind Press
QNH
hPa
Press
MSL
hPa
Rain
since
9 am
mm
Dir
 
Spd
km/h
Gust
km/h
Spd
kts
Gust
kts
23/11:30pm 9.3 1.8 6.4 82 1.3 WSW 35 44 19 24 1028.0 1028.1 0.0
23/11:00pm 9.1 2.0 6.2 82 1.3 WSW 33 41 18 22 1028.0 1028.1 0.0
23/10:30pm 8.9 1.8 6.3 84 1.2 WSW 33 44 18 24 1027.9 1028.0 0.0
23/10:00pm 8.8 1.9 6.4 85 1.1 WSW 32 43 17 23 1028.2 1028.3 0.0
23/09:30pm 9.4 1.5 6.3 81 1.4 WSW 37 46 20 25 1028.2 1028.3 0.0
23/09:00pm 9.4 2.4 5.9 79 1.6 WSW 32 39 17 21 1028.4 1028.5 0.0
23/08:30pm 9.9 3.3 5.9 76 1.8 WSW 30 43 16 23 1028.4 1028.5 0.0
23/08:00pm 10.1 3.0 5.3 72 2.2 WSW 32 39 17 21 1028.2 1028.3 0.0
23/07:30pm 10.2 3.5 5.4 72 2.2 W 30 46 16 25 1028.0 1028.1 0.0
23/07:00pm 10.5 3.0 4.6 67 2.6 W 33 48 18 26 1028.0 1028.1 0.0
23/06:30pm 10.6 1.2 4.3 65 2.8 W 43 57 23 31 1027.8 1027.9 0.0
23/06:25pm 10.3 1.5 3.6 63 2.9 W 39 57 21 31 1027.7 1027.8 0.0

Latest Capital City Observations: Canberra | Sydney | Melbourne | Brisbane | Adelaide | Perth | Hobart | Darwin

Other Formats:

Comma delimited format used in spreadsheet applications
http://www.bom.gov.au/fwo/IDT60901/IDT60901.95967.axf

JavaScript Object Notation format (JSON) in row-major order
http://www.bom.gov.au/fwo/IDT60901/IDT60901.95967.json